Time;durP1;ratioP1;P1;durP2;ratioP2;P2;SDS_P1;SDS_P2;PMS_P1;PMS_P2;Temp;Humidity;BMP_temperature;BMP_pressure;BME280_temperature;BME280_humidity;BME280_pressure;Samples;Min_cycle;Max_cycle;Signal;HPM_P1;HPM_P2
2022/03/23 00:02:14;;;;;;;23.63;14.10;;;;;;;;;;5002018;28;20033;-77
2022/03/23 00:04:39;;;;;;;23.92;13.75;;;;;;;;;;4974633;28;20050;-79
2022/03/23 00:07:06;;;;;;;24.90;13.23;;;;;;;;;;4984141;28;20041;-79
2022/03/23 00:09:32;;;;;;;24.70;12.98;;;;;;;;;;4989320;28;20027;-80
2022/03/23 00:11:57;;;;;;;26.77;14.07;;;;;;;;;;4982346;28;20086;-80
2022/03/23 00:14:23;;;;;;;25.20;13.50;;;;;;;;;;4982466;28;20504;-80
2022/03/23 00:16:49;;;;;;;26.45;12.98;;;;;;;;;;4974649;28;20039;-80
2022/03/23 00:19:15;;;;;;;25.48;12.98;;;;;;;;;;4974524;28;20110;-80
2022/03/23 00:21:40;;;;;;;27.17;13.98;;;;;;;;;;4974216;28;20426;-80
2022/03/23 00:24:06;;;;;;;25.98;13.35;;;;;;;;;;4974011;28;20158;-80
2022/03/23 00:26:31;;;;;;;24.98;12.57;;;;;;;;;;4974385;28;20102;-80
2022/03/23 00:28:57;;;;;;;24.33;13.70;;;;;;;;;;4974114;28;20034;-80
2022/03/23 00:31:23;;;;;;;22.48;12.40;;;;;;;;;;4986834;28;20030;-80
2022/03/23 00:33:50;;;;;;;28.20;13.98;;;;;;;;;;4984939;28;20375;-79
2022/03/23 00:36:15;;;;;;;24.90;12.45;;;;;;;;;;4976330;28;20034;-80
2022/03/23 00:38:41;;;;;;;22.65;12.45;;;;;;;;;;4983815;28;20032;-80
2022/03/23 00:41:08;;;;;;;30.17;12.38;;;;;;;;;;4979360;28;20027;-80
2022/03/23 00:43:33;;;;;;;25.65;13.43;;;;;;;;;;4992794;28;20105;-78
2022/03/23 00:45:59;;;;;;;27.13;12.82;;;;;;;;;;4983571;28;21381;-79
2022/03/23 00:48:25;;;;;;;25.90;14.00;;;;;;;;;;4973793;28;20031;-79
2022/03/23 00:50:50;;;;;;;26.13;12.98;;;;;;;;;;4974034;28;20038;-80
2022/03/23 00:53:17;;;;;;;26.17;13.88;;;;;;;;;;4975922;28;20050;-79
2022/03/23 00:55:43;;;;;;;26.02;13.65;;;;;;;;;;4985425;28;20029;-79
2022/03/23 00:58:09;;;;;;;25.70;13.48;;;;;;;;;;4990325;28;20022;-78
2022/03/23 01:00:34;;;;;;;26.23;13.95;;;;;;;;;;4982388;28;20027;-79
2022/03/23 01:03:00;;;;;;;30.50;14.98;;;;;;;;;;4972124;28;20148;-79
2022/03/23 01:05:26;;;;;;;28.88;13.95;;;;;;;;;;4982367;28;20039;-80
2022/03/23 01:07:51;;;;;;;29.75;14.10;;;;;;;;;;4986242;28;20053;-78
2022/03/23 01:10:17;;;;;;;27.73;13.07;;;;;;;;;;4986518;28;20404;-78
2022/03/23 01:12:44;;;;;;;28.52;13.43;;;;;;;;;;4968748;28;20023;-78
2022/03/23 01:15:12;;;;;;;29.20;13.40;;;;;;;;;;4964337;28;20039;-77
2022/03/23 01:17:38;;;;;;;29.02;12.98;;;;;;;;;;4970231;28;20030;-78
2022/03/23 01:20:08;;;;;;;22.40;11.90;;;;;;;;;;4975187;28;20023;-77
2022/03/23 01:22:34;;;;;;;23.23;11.75;;;;;;;;;;4973364;28;20045;-80
2022/03/23 01:24:59;;;;;;;23.73;12.35;;;;;;;;;;4975249;28;20390;-78
2022/03/23 01:27:24;;;;;;;22.48;11.80;;;;;;;;;;4983747;28;20029;-79
2022/03/23 01:29:50;;;;;;;21.23;10.60;;;;;;;;;;5004052;28;20018;-78
2022/03/23 01:32:15;;;;;;;18.60;10.35;;;;;;;;;;4988548;28;20027;-77
2022/03/23 01:34:40;;;;;;;20.88;10.48;;;;;;;;;;4986584;28;20485;-77
2022/03/23 01:37:06;;;;;;;27.05;13.57;;;;;;;;;;4991166;28;20033;-80
2022/03/23 01:39:32;;;;;;;23.38;11.65;;;;;;;;;;4992600;28;20031;-78
2022/03/23 01:41:58;;;;;;;24.42;11.40;;;;;;;;;;4986191;28;20035;-78
2022/03/23 01:44:25;;;;;;;25.30;12.23;;;;;;;;;;4994610;28;20113;-78
2022/03/23 01:47:08;;;;;;;26.35;11.88;;;;;;;;;;4970664;28;20035;-79
2022/03/23 01:49:46;;;;;;;17.70;10.15;;;;;;;;;;4965767;28;20023;-78
2022/03/23 01:52:15;;;;;;;20.13;10.70;;;;;;;;;;4971813;28;20075;-78
2022/03/23 01:54:42;;;;;;;23.38;10.65;;;;;;;;;;4988166;28;20026;-78
2022/03/23 01:57:09;;;;;;;93.55;13.80;;;;;;;;;;4979714;28;20070;-78
2022/03/23 01:59:35;;;;;;;69.00;13.27;;;;;;;;;;4991479;28;20026;-79
2022/03/23 02:02:00;;;;;;;23.70;10.88;;;;;;;;;;4987203;28;20049;-78
2022/03/23 02:04:26;;;;;;;22.55;11.63;;;;;;;;;;4989361;28;20023;-78
2022/03/23 02:06:52;;;;;;;20.27;10.07;;;;;;;;;;4986222;28;20042;-78
2022/03/23 02:09:18;;;;;;;21.13;10.25;;;;;;;;;;4996935;28;20038;-78
2022/03/23 02:11:45;;;;;;;19.70;10.60;;;;;;;;;;5002533;28;20019;-78
2022/03/23 02:14:11;;;;;;;19.67;10.55;;;;;;;;;;4984151;28;20039;-78
2022/03/23 02:16:45;;;;;;;20.35;10.95;;;;;;;;;;4994666;28;20046;-77
2022/03/23 02:19:11;;;;;;;21.52;10.93;;;;;;;;;;4993072;28;20031;-77
2022/03/23 02:21:36;;;;;;;20.98;10.68;;;;;;;;;;5007451;28;20034;-78
2022/03/23 02:24:03;;;;;;;23.73;11.38;;;;;;;;;;5011005;28;20027;-77
2022/03/23 02:26:29;;;;;;;19.73;10.52;;;;;;;;;;5010276;28;20037;-78
2022/03/23 02:28:55;;;;;;;21.50;10.95;;;;;;;;;;5001129;28;20038;-79
2022/03/23 02:31:20;;;;;;;18.13;10.45;;;;;;;;;;5009367;28;20085;-77
2022/03/23 02:33:46;;;;;;;23.70;10.85;;;;;;;;;;4999502;28;20027;-78
2022/03/23 02:36:11;;;;;;;21.83;10.23;;;;;;;;;;4992523;28;20019;-78
2022/03/23 02:38:37;;;;;;;28.67;11.50;;;;;;;;;;5004440;28;20025;-79
2022/03/23 02:41:03;;;;;;;26.70;10.43;;;;;;;;;;5005638;28;20022;-82
2022/03/23 02:43:29;;;;;;;19.65;11.20;;;;;;;;;;5018296;28;20038;-81
2022/03/23 02:45:54;;;;;;;22.05;11.55;;;;;;;;;;5018554;28;20085;-81
2022/03/23 02:48:19;;;;;;;19.80;11.18;;;;;;;;;;5018450;28;20019;-81
2022/03/23 02:50:45;;;;;;;18.20;10.57;;;;;;;;;;5017868;28;20469;-81
2022/03/23 03:02:01;;;;;;;21.75;10.50;;;;;;;;;;4997431;28;20041;-80
2022/03/23 03:04:27;;;;;;;21.15;9.63;;;;;;;;;;4984257;28;20066;-79
2022/03/23 03:06:52;;;;;;;30.48;11.52;;;;;;;;;;4981057;28;20062;-79
2022/03/23 03:09:19;;;;;;;18.65;10.45;;;;;;;;;;4970453;28;20412;-79
2022/03/23 03:11:45;;;;;;;22.70;11.60;;;;;;;;;;4995028;28;20038;-79
2022/03/23 03:14:11;;;;;;;18.77;10.07;;;;;;;;;;4978466;28;20045;-79
2022/03/23 03:16:37;;;;;;;18.05;10.57;;;;;;;;;;4987127;28;20026;-80
2022/03/23 03:19:09;;;;;;;19.35;10.45;;;;;;;;;;4974872;28;20031;-79
2022/03/23 03:21:35;;;;;;;22.88;10.10;;;;;;;;;;4980461;28;20085;-79
2022/03/23 03:24:01;;;;;;;18.95;10.90;;;;;;;;;;4982894;28;20039;-82
2022/03/23 03:26:26;;;;;;;19.42;10.98;;;;;;;;;;4987992;28;20037;-80
2022/03/23 03:28:51;;;;;;;20.85;10.80;;;;;;;;;;4976925;28;20031;-78
2022/03/23 03:31:17;;;;;;;19.90;10.93;;;;;;;;;;4987999;28;20022;-79
2022/03/23 03:33:44;;;;;;;26.63;10.27;;;;;;;;;;4987529;28;20023;-79
2022/03/23 03:36:10;;;;;;;33.13;10.82;;;;;;;;;;4996979;28;20015;-80
2022/03/23 03:38:36;;;;;;;20.17;10.68;;;;;;;;;;4981671;28;20026;-79
2022/03/23 03:41:02;;;;;;;25.23;11.82;;;;;;;;;;4966452;28;20545;-80
2022/03/23 03:43:29;;;;;;;19.85;10.68;;;;;;;;;;4982660;28;20046;-79
2022/03/23 03:45:54;;;;;;;20.30;12.40;;;;;;;;;;4982973;28;20038;-79
2022/03/23 03:48:20;;;;;;;23.58;12.00;;;;;;;;;;4985014;28;20026;-78
2022/03/23 03:50:46;;;;;;;20.67;12.02;;;;;;;;;;4979421;28;20023;-80
2022/03/23 03:53:11;;;;;;;25.85;12.48;;;;;;;;;;4973566;28;20030;-78
2022/03/23 03:55:38;;;;;;;24.67;12.27;;;;;;;;;;4972528;28;20023;-78
2022/03/23 03:58:05;;;;;;;24.73;12.00;;;;;;;;;;4972467;28;20027;-78
2022/03/23 04:00:34;;;;;;;28.50;13.48;;;;;;;;;;4985395;28;20030;-78
2022/03/23 04:02:59;;;;;;;21.67;12.15;;;;;;;;;;4968063;28;20074;-78
2022/03/23 04:05:25;;;;;;;23.60;12.82;;;;;;;;;;4972809;28;20034;-78
2022/03/23 04:07:50;;;;;;;24.92;12.80;;;;;;;;;;4978053;28;20097;-79
2022/03/23 04:10:15;;;;;;;27.25;12.98;;;;;;;;;;4978987;28;20035;-78
2022/03/23 04:12:41;;;;;;;21.30;11.70;;;;;;;;;;4967487;28;20034;-78
2022/03/23 04:15:07;;;;;;;23.73;11.65;;;;;;;;;;4982383;28;20077;-80
2022/03/23 04:17:33;;;;;;;24.55;12.30;;;;;;;;;;4984057;28;20211;-79
2022/03/23 04:19:58;;;;;;;25.40;11.70;;;;;;;;;;4984839;28;20515;-79
2022/03/23 04:22:24;;;;;;;26.60;11.68;;;;;;;;;;4986857;28;20110;-79
2022/03/23 04:24:49;;;;;;;23.00;11.93;;;;;;;;;;4976271;28;20132;-78
2022/03/23 04:27:15;;;;;;;22.48;11.85;;;;;;;;;;4996407;28;20113;-80
2022/03/23 04:29:40;;;;;;;26.48;11.75;;;;;;;;;;5002819;28;20050;-79
2022/03/23 04:32:07;;;;;;;23.05;12.32;;;;;;;;;;4978177;28;20035;-79
2022/03/23 04:34:33;;;;;;;19.20;11.40;;;;;;;;;;4998778;28;20031;-79
2022/03/23 04:36:59;;;;;;;29.08;12.93;;;;;;;;;;4982610;28;20035;-79
2022/03/23 04:39:25;;;;;;;22.90;12.38;;;;;;;;;;4984091;28;20038;-79
2022/03/23 04:41:50;;;;;;;25.25;12.18;;;;;;;;;;4993347;28;20033;-78
2022/03/23 04:44:16;;;;;;;21.65;11.57;;;;;;;;;;4992968;28;20116;-79
2022/03/23 04:46:41;;;;;;;29.27;12.98;;;;;;;;;;4975762;28;20027;-79
2022/03/23 04:49:08;;;;;;;26.23;12.98;;;;;;;;;;4976862;28;20023;-79
2022/03/23 04:51:34;;;;;;;23.10;13.05;;;;;;;;;;4981505;28;20103;-79
2022/03/23 04:54:00;;;;;;;23.00;12.93;;;;;;;;;;4986640;28;20481;-79
2022/03/23 04:56:26;;;;;;;23.67;12.20;;;;;;;;;;4976192;28;20041;-79
2022/03/23 04:58:51;;;;;;;19.48;11.95;;;;;;;;;;4980037;28;20035;-79
2022/03/23 05:01:17;;;;;;;27.58;12.75;;;;;;;;;;4976891;28;20033;-79
2022/03/23 05:03:42;;;;;;;23.92;12.65;;;;;;;;;;4975363;28;20027;-79
2022/03/23 05:06:08;;;;;;;24.50;12.68;;;;;;;;;;4982842;28;20046;-80
2022/03/23 05:08:33;;;;;;;25.05;13.27;;;;;;;;;;4991971;28;20113;-80
2022/03/23 05:10:58;;;;;;;23.65;12.32;;;;;;;;;;4979578;28;20092;-78
2022/03/23 05:13:24;;;;;;;22.98;10.70;;;;;;;;;;4989258;28;20061;-78
2022/03/23 05:15:50;;;;;;;28.77;13.65;;;;;;;;;;4979794;28;20040;-78
2022/03/23 05:18:16;;;;;;;22.83;11.00;;;;;;;;;;4978318;28;20027;-79
2022/03/23 05:20:41;;;;;;;22.00;11.75;;;;;;;;;;4979807;28;20379;-78
2022/03/23 05:23:07;;;;;;;22.25;11.38;;;;;;;;;;4979267;28;20031;-77
2022/03/23 05:25:33;;;;;;;22.85;12.50;;;;;;;;;;4978954;28;20117;-78
2022/03/23 05:27:58;;;;;;;20.80;11.27;;;;;;;;;;4976128;28;20062;-78
2022/03/23 05:30:23;;;;;;;22.02;11.75;;;;;;;;;;4978302;28;20035;-78
2022/03/23 05:32:49;;;;;;;20.35;11.65;;;;;;;;;;4986803;28;20042;-80
2022/03/23 05:35:14;;;;;;;22.23;11.65;;;;;;;;;;4975841;28;20038;-79
2022/03/23 05:37:40;;;;;;;22.08;10.85;;;;;;;;;;4986119;28;20030;-79
2022/03/23 05:40:07;;;;;;;22.45;12.10;;;;;;;;;;4980493;28;20374;-79
2022/03/23 05:42:33;;;;;;;24.58;11.45;;;;;;;;;;4984041;28;20053;-79
2022/03/23 05:44:58;;;;;;;24.05;11.77;;;;;;;;;;4977805;28;20105;-80
2022/03/23 05:47:24;;;;;;;23.58;12.55;;;;;;;;;;4977201;28;20508;-79
2022/03/23 05:49:49;;;;;;;22.00;11.80;;;;;;;;;;4982422;28;20062;-78
2022/03/23 05:52:15;;;;;;;30.02;12.13;;;;;;;;;;4980135;28;20055;-79
2022/03/23 05:54:40;;;;;;;24.50;11.60;;;;;;;;;;4983780;28;20062;-80
2022/03/23 05:57:06;;;;;;;23.70;11.63;;;;;;;;;;4988971;28;20020;-81
2022/03/23 05:59:31;;;;;;;25.30;12.18;;;;;;;;;;4982916;28;20029;-80
2022/03/23 06:02:00;;;;;;;25.70;12.32;;;;;;;;;;4982561;28;20050;-80
2022/03/23 06:04:26;;;;;;;28.92;10.88;;;;;;;;;;4967128;28;20035;-80
2022/03/23 06:06:52;;;;;;;21.73;11.00;;;;;;;;;;4967249;28;20033;-79
2022/03/23 06:09:21;;;;;;;30.40;12.38;;;;;;;;;;4992818;28;20022;-79
2022/03/23 06:11:47;;;;;;;24.08;11.65;;;;;;;;;;4980760;28;20397;-79
2022/03/23 06:14:12;;;;;;;22.35;11.55;;;;;;;;;;4960835;28;20023;-80
2022/03/23 06:16:38;;;;;;;24.17;11.98;;;;;;;;;;4965022;28;20089;-82
2022/03/23 06:19:03;;;;;;;18.60;11.23;;;;;;;;;;4976520;28;20022;-80
2022/03/23 06:21:29;;;;;;;22.77;11.35;;;;;;;;;;4978053;28;20042;-80
2022/03/23 06:23:54;;;;;;;25.77;12.43;;;;;;;;;;4978934;28;20042;-80
2022/03/23 06:26:20;;;;;;;22.77;12.23;;;;;;;;;;4979648;28;20038;-80
2022/03/23 06:28:45;;;;;;;22.85;12.70;;;;;;;;;;4974583;28;20036;-79
2022/03/23 06:31:11;;;;;;;24.45;12.38;;;;;;;;;;4960740;28;20027;-79
2022/03/23 06:33:36;;;;;;;20.45;11.57;;;;;;;;;;4968846;28;20039;-82
2022/03/23 06:36:02;;;;;;;19.33;11.45;;;;;;;;;;4959218;28;20058;-80
2022/03/23 06:38:28;;;;;;;26.13;11.77;;;;;;;;;;4965837;28;20034;-79
2022/03/23 06:40:53;;;;;;;25.17;12.25;;;;;;;;;;4974978;28;20045;-79
2022/03/23 06:43:19;;;;;;;22.58;13.07;;;;;;;;;;4960611;28;20019;-79
2022/03/23 06:45:44;;;;;;;46.47;22.58;;;;;;;;;;4977836;28;20026;-85
2022/03/23 06:48:10;;;;;;;27.13;14.32;;;;;;;;;;4976765;28;20031;-81
2022/03/23 06:50:36;;;;;;;24.15;13.68;;;;;;;;;;4978301;28;20077;-81
2022/03/23 06:53:02;;;;;;;21.67;12.07;;;;;;;;;;4978122;28;20408;-80
2022/03/23 06:55:27;;;;;;;23.52;12.02;;;;;;;;;;4960921;28;20035;-81
2022/03/23 06:57:53;;;;;;;20.10;12.82;;;;;;;;;;4983892;28;20180;-81
2022/03/23 07:00:19;;;;;;;21.95;11.38;;;;;;;;;;4986504;28;20073;-80
2022/03/23 07:02:49;;;;;;;21.63;13.57;;;;;;;;;;4978555;28;20377;-81
2022/03/23 07:05:17;;;;;;;21.83;12.85;;;;;;;;;;4978735;28;20033;-81
2022/03/23 07:10:28;;;;;;;21.63;12.95;;;;;;;;;;4974706;28;20087;-81
2022/03/23 07:12:53;;;;;;;27.33;12.90;;;;;;;;;;4985476;28;20058;-82
2022/03/23 07:15:19;;;;;;;20.27;12.73;;;;;;;;;;4980509;28;20043;-82
2022/03/23 07:17:44;;;;;;;22.67;14.10;;;;;;;;;;4983621;28;20389;-82
2022/03/23 07:20:10;;;;;;;26.48;13.65;;;;;;;;;;4977149;28;20397;-82
2022/03/23 07:22:36;;;;;;;19.50;12.57;;;;;;;;;;4978711;28;20030;-82
2022/03/23 07:25:01;;;;;;;22.13;12.32;;;;;;;;;;4978102;28;20501;-82
2022/03/23 07:27:27;;;;;;;30.65;13.00;;;;;;;;;;4980683;28;20023;-82
2022/03/23 07:29:52;;;;;;;18.70;12.60;;;;;;;;;;4977847;28;20030;-82
2022/03/23 07:32:18;;;;;;;21.98;13.00;;;;;;;;;;4978427;28;20151;-82
2022/03/23 07:34:43;;;;;;;23.13;13.00;;;;;;;;;;4985507;28;20027;-82
2022/03/23 07:37:09;;;;;;;23.20;13.23;;;;;;;;;;4984752;28;20038;-82
2022/03/23 07:39:34;;;;;;;20.55;12.90;;;;;;;;;;4981768;28;20058;-82
2022/03/23 07:42:02;;;;;;;20.33;13.25;;;;;;;;;;4984235;28;20460;-81
2022/03/23 07:44:28;;;;;;;21.40;13.43;;;;;;;;;;4984098;28;20026;-82
2022/03/23 07:46:54;;;;;;;23.92;12.77;;;;;;;;;;4978029;28;20038;-81
2022/03/23 07:49:19;;;;;;;20.95;13.25;;;;;;;;;;4975207;28;20027;-83
2022/03/23 07:51:45;;;;;;;22.65;12.85;;;;;;;;;;4977029;28;20038;-82
2022/03/23 07:54:10;;;;;;;21.85;13.30;;;;;;;;;;4973547;28;20027;-82
2022/03/23 07:56:36;;;;;;;21.27;12.27;;;;;;;;;;4972772;28;20053;-83
2022/03/23 07:59:02;;;;;;;26.30;13.48;;;;;;;;;;4972785;28;20034;-80
2022/03/23 08:01:28;;;;;;;24.00;13.50;;;;;;;;;;4965201;28;20023;-81
2022/03/23 08:03:53;;;;;;;21.40;12.68;;;;;;;;;;4976387;28;20022;-81
2022/03/23 08:06:18;;;;;;;21.52;14.52;;;;;;;;;;4980011;28;20362;-80
2022/03/23 08:08:44;;;;;;;19.17;13.02;;;;;;;;;;4990494;28;20456;-82
2022/03/23 08:11:09;;;;;;;27.02;14.10;;;;;;;;;;4977088;28;20058;-81
2022/03/23 08:13:35;;;;;;;23.63;14.30;;;;;;;;;;4976945;28;20078;-81
2022/03/23 08:16:07;;;;;;;28.05;14.93;;;;;;;;;;4977291;28;20027;-80
2022/03/23 08:18:33;;;;;;;24.75;14.00;;;;;;;;;;4981818;28;20023;-80
2022/03/23 08:21:00;;;;;;;27.23;14.98;;;;;;;;;;4975109;28;20071;-80
2022/03/23 08:23:26;;;;;;;24.95;14.75;;;;;;;;;;4971609;28;20027;-82
2022/03/23 08:25:51;;;;;;;22.70;14.85;;;;;;;;;;4981617;28;20370;-81
2022/03/23 08:28:17;;;;;;;23.35;14.43;;;;;;;;;;4995143;28;20026;-82
2022/03/23 08:30:44;;;;;;;23.48;14.48;;;;;;;;;;4993550;28;20018;-81
2022/03/23 08:33:10;;;;;;;21.75;14.20;;;;;;;;;;4996327;28;20038;-81
2022/03/23 08:35:36;;;;;;;31.73;14.48;;;;;;;;;;4994371;28;20038;-82
2022/03/23 08:38:01;;;;;;;22.15;13.27;;;;;;;;;;4990744;28;20458;-82
2022/03/23 08:40:28;;;;;;;21.30;13.38;;;;;;;;;;4965646;28;20055;-81
2022/03/23 08:42:55;;;;;;;23.00;13.68;;;;;;;;;;4977492;28;20026;-82
2022/03/23 08:45:21;;;;;;;26.45;14.90;;;;;;;;;;4963904;28;20026;-81
2022/03/23 08:47:48;;;;;;;33.03;15.70;;;;;;;;;;4967826;28;20023;-81
2022/03/23 08:50:15;;;;;;;29.08;15.18;;;;;;;;;;4966679;28;20019;-83
2022/03/23 08:52:41;;;;;;;26.08;14.75;;;;;;;;;;4956270;28;20027;-80
2022/03/23 08:55:09;;;;;;;23.70;15.05;;;;;;;;;;4959691;28;20049;-80
2022/03/23 08:57:36;;;;;;;24.33;13.07;;;;;;;;;;4988316;28;20022;-81
2022/03/23 09:00:04;;;;;;;19.98;11.80;;;;;;;;;;4992415;28;20033;-80
2022/03/23 09:02:29;;;;;;;18.88;13.40;;;;;;;;;;4976635;28;20023;-80
2022/03/23 09:04:55;;;;;;;19.08;12.43;;;;;;;;;;4959643;28;20023;-83
2022/03/23 09:07:22;;;;;;;23.80;12.93;;;;;;;;;;4961462;28;20025;-82
2022/03/23 09:09:48;;;;;;;22.38;12.13;;;;;;;;;;4969484;28;20393;-83
2022/03/23 09:12:13;;;;;;;34.30;13.30;;;;;;;;;;4942539;28;20035;-82
2022/03/23 09:14:39;;;;;;;20.10;12.13;;;;;;;;;;4943146;28;20516;-81
2022/03/23 09:17:05;;;;;;;21.10;12.82;;;;;;;;;;4970350;28;20073;-80
2022/03/23 09:19:31;;;;;;;17.42;11.95;;;;;;;;;;4973454;28;20413;-80
2022/03/23 09:21:59;;;;;;;23.33;12.07;;;;;;;;;;4970120;28;20031;-81
2022/03/23 09:24:25;;;;;;;25.75;13.23;;;;;;;;;;4974865;28;20019;-81
2022/03/23 09:26:50;;;;;;;18.80;13.52;;;;;;;;;;4971320;28;20460;-79
2022/03/23 09:29:16;;;;;;;28.25;13.57;;;;;;;;;;4968083;28;20033;-80
2022/03/23 09:31:41;;;;;;;23.65;13.52;;;;;;;;;;4975470;28;20019;-81
2022/03/23 09:34:07;;;;;;;21.73;13.60;;;;;;;;;;4978481;28;20027;-81
2022/03/23 09:39:18;;;;;;;19.65;12.98;;;;;;;;;;4973564;28;20113;-81
2022/03/23 09:41:47;;;;;;;21.17;11.85;;;;;;;;;;4970143;28;20023;-81
2022/03/23 09:44:13;;;;;;;22.73;12.18;;;;;;;;;;4978349;28;21207;-80
2022/03/23 09:46:39;;;;;;;24.15;13.10;;;;;;;;;;4972509;28;20047;-81
2022/03/23 09:49:06;;;;;;;16.42;11.45;;;;;;;;;;4978616;28;20023;-81
2022/03/23 09:51:33;;;;;;;17.13;10.40;;;;;;;;;;4967022;28;20027;-80
2022/03/23 09:53:59;;;;;;;19.73;10.68;;;;;;;;;;4964883;28;20031;-81
2022/03/23 09:56:25;;;;;;;14.70;10.65;;;;;;;;;;4966772;28;20019;-80
2022/03/23 09:58:50;;;;;;;17.50;11.32;;;;;;;;;;4959037;28;20019;-82
2022/03/23 10:01:28;;;;;;;19.13;11.50;;;;;;;;;;4967724;28;20091;-81
2022/03/23 10:04:12;;;;;;;24.85;10.10;;;;;;;;;;4966713;28;20630;-82
2022/03/23 10:06:56;;;;;;;18.95;10.27;;;;;;;;;;4961645;28;20439;-82
2022/03/23 10:09:40;;;;;;;22.00;11.13;;;;;;;;;;4967466;28;20046;-82
2022/03/23 10:12:24;;;;;;;16.00;10.20;;;;;;;;;;4964445;28;20027;-82
2022/03/23 10:15:28;;;;;;;15.80;10.48;;;;;;;;;;4971235;28;20193;-82
2022/03/23 10:18:17;;;;;;;19.90;11.48;;;;;;;;;;4969202;28;20122;-82
2022/03/23 10:20:42;;;;;;;18.58;11.63;;;;;;;;;;4970220;28;20521;-82
2022/03/23 10:23:08;;;;;;;18.77;11.98;;;;;;;;;;4960091;28;20089;-82
2022/03/23 10:25:33;;;;;;;17.10;11.27;;;;;;;;;;4960735;28;20027;-82
2022/03/23 10:27:58;;;;;;;20.50;10.60;;;;;;;;;;4963395;28;20035;-82
2022/03/23 10:30:35;;;;;;;18.45;10.88;;;;;;;;;;4977259;28;20026;-83
2022/03/23 10:33:01;;;;;;;18.65;11.52;;;;;;;;;;4972879;28;20041;-83
2022/03/23 10:35:36;;;;;;;16.83;10.93;;;;;;;;;;4966561;28;20160;-81
2022/03/23 10:38:15;;;;;;;18.92;10.50;;;;;;;;;;4974609;28;20521;-80
2022/03/23 10:40:41;;;;;;;15.82;10.93;;;;;;;;;;4968209;28;20037;-81
2022/03/23 10:43:08;;;;;;;18.02;11.07;;;;;;;;;;4956229;28;20031;-81
2022/03/23 10:45:33;;;;;;;14.48;10.75;;;;;;;;;;4954500;28;21578;-81
2022/03/23 10:48:19;;;;;;;19.58;12.13;;;;;;;;;;4966325;28;20840;-79
2022/03/23 10:50:53;;;;;;;16.42;10.43;;;;;;;;;;4960629;28;20074;-81
2022/03/23 10:53:34;;;;;;;15.77;11.18;;;;;;;;;;4959910;28;20015;-80
2022/03/23 10:56:02;;;;;;;15.38;11.05;;;;;;;;;;4966932;28;20026;-84
2022/03/23 10:58:28;;;;;;;19.83;10.90;;;;;;;;;;4959295;28;20023;-80
2022/03/23 11:00:55;;;;;;;23.02;11.43;;;;;;;;;;4965844;28;20389;-82
2022/03/23 11:03:42;;;;;;;14.75;10.35;;;;;;;;;;4963172;28;20039;-80
2022/03/23 11:06:27;;;;;;;14.43;10.13;;;;;;;;;;4954620;28;20572;-80
2022/03/23 11:08:52;;;;;;;14.02;9.95;;;;;;;;;;4955728;28;20028;-82
2022/03/23 11:16:35;;;;;;;19.13;10.10;;;;;;;;;;4963180;28;20023;-82
2022/03/23 11:19:11;;;;;;;21.88;10.32;;;;;;;;;;4962626;28;20023;-81
2022/03/23 11:22:01;;;;;;;13.18;8.43;;;;;;;;;;4978120;28;20027;-82
2022/03/23 11:24:57;;;;;;;12.80;8.20;;;;;;;;;;4989143;23;20438;-83
2022/03/23 11:27:22;;;;;;;15.68;10.20;;;;;;;;;;5011748;28;20060;-83
2022/03/23 11:29:49;;;;;;;17.60;10.55;;;;;;;;;;5028486;28;20021;-82
2022/03/23 11:32:42;;;;;;;15.07;9.88;;;;;;;;;;5030044;28;20050;-83
2022/03/23 11:35:08;;;;;;;14.02;9.82;;;;;;;;;;5016176;28;20097;-80
2022/03/23 11:37:35;;;;;;;15.82;10.27;;;;;;;;;;5007850;28;20087;-81
2022/03/23 11:40:03;;;;;;;19.40;10.93;;;;;;;;;;4990009;28;20729;-82
2022/03/23 11:42:29;;;;;;;14.20;10.88;;;;;;;;;;4984809;28;20018;-83
2022/03/23 11:44:54;;;;;;;16.63;10.38;;;;;;;;;;5007763;28;20061;-85
2022/03/23 11:47:42;;;;;;;16.00;10.02;;;;;;;;;;5012352;28;20029;-80
2022/03/23 11:50:22;;;;;;;14.27;11.13;;;;;;;;;;4986434;28;20022;-80
2022/03/23 11:53:09;;;;;;;15.68;11.65;;;;;;;;;;4984632;28;20037;-84
2022/03/23 11:55:37;;;;;;;13.38;9.63;;;;;;;;;;5005629;28;20022;-86
2022/03/23 11:58:15;;;;;;;14.48;11.00;;;;;;;;;;5009534;28;20026;-83
2022/03/23 12:00:47;;;;;;;35.22;10.77;;;;;;;;;;5003034;28;20042;-84
2022/03/23 12:03:13;;;;;;;16.55;11.05;;;;;;;;;;4990015;28;20019;-83
2022/03/23 12:05:50;;;;;;;14.98;10.38;;;;;;;;;;5006496;28;20629;-83
2022/03/23 12:08:58;;;;;;;24.10;9.82;;;;;;;;;;5012136;28;20087;-85
2022/03/23 12:11:45;;;;;;;11.35;8.13;;;;;;;;;;5001727;28;20044;-84
2022/03/23 12:14:20;;;;;;;11.60;7.35;;;;;;;;;;5001228;28;20038;-84
2022/03/23 12:16:51;;;;;;;10.20;7.25;;;;;;;;;;5013795;28;20057;-82
2022/03/23 12:19:18;;;;;;;9.93;6.45;;;;;;;;;;5003507;28;20505;-80
2022/03/23 12:21:53;;;;;;;13.82;6.95;;;;;;;;;;5008719;28;20095;-83
2022/03/23 12:24:34;;;;;;;9.00;6.53;;;;;;;;;;5016792;28;20017;-82
2022/03/23 12:27:07;;;;;;;10.55;7.40;;;;;;;;;;5009103;28;20034;-85
2022/03/23 12:29:36;;;;;;;12.50;7.47;;;;;;;;;;5010188;28;20400;-79
2022/03/23 12:32:03;;;;;;;9.88;7.13;;;;;;;;;;5018783;28;20057;-82
2022/03/23 12:34:30;;;;;;;11.10;7.00;;;;;;;;;;4994447;28;20017;-84
2022/03/23 12:37:08;;;;;;;12.63;8.40;;;;;;;;;;5015121;28;20025;-80
2022/03/23 12:39:51;;;;;;;8.57;6.50;;;;;;;;;;4989615;28;20026;-80
2022/03/23 12:42:28;;;;;;;9.48;6.72;;;;;;;;;;5019452;28;20078;-82
2022/03/23 12:45:14;;;;;;;9.65;7.30;;;;;;;;;;4993918;28;20026;-82
2022/03/23 12:47:51;;;;;;;10.68;7.38;;;;;;;;;;5006913;28;20018;-82
2022/03/23 12:58:35;;;;;;;15.57;7.80;;;;;;;;;;5015581;28;20048;-81
2022/03/23 13:01:12;;;;;;;12.20;7.43;;;;;;;;;;5018568;28;20053;-80
2022/03/23 13:03:43;;;;;;;12.77;7.88;;;;;;;;;;5008424;28;20033;-81
2022/03/23 13:06:10;;;;;;;10.48;6.35;;;;;;;;;;4997470;28;20111;-82
2022/03/23 13:08:47;;;;;;;10.15;7.00;;;;;;;;;;5014777;28;20473;-80
2022/03/23 13:11:14;;;;;;;10.38;6.57;;;;;;;;;;5027370;28;20021;-80
2022/03/23 13:13:40;;;;;;;10.48;6.88;;;;;;;;;;5022848;28;20723;-81
2022/03/23 13:16:12;;;;;;;12.07;6.32;;;;;;;;;;5003388;28;20052;-83
2022/03/23 13:18:38;;;;;;;10.32;6.63;;;;;;;;;;5020922;28;20021;-82
2022/03/23 13:21:12;;;;;;;12.57;7.05;;;;;;;;;;5003706;28;20073;-81
2022/03/23 13:24:03;;;;;;;10.43;7.50;;;;;;;;;;5020170;28;20017;-82
2022/03/23 13:26:31;;;;;;;10.80;6.95;;;;;;;;;;5016770;28;20129;-81
2022/03/23 13:29:00;;;;;;;9.75;6.60;;;;;;;;;;5040761;28;20360;-82
2022/03/23 13:31:31;;;;;;;12.60;6.72;;;;;;;;;;5027659;28;20041;-80
2022/03/23 13:34:01;;;;;;;11.83;7.10;;;;;;;;;;5011888;28;20101;-82
2022/03/23 13:36:26;;;;;;;13.90;6.88;;;;;;;;;;5005945;28;20290;-82
2022/03/23 13:38:54;;;;;;;13.13;7.07;;;;;;;;;;5031550;28;20021;-81
2022/03/23 13:44:07;;;;;;;12.90;7.53;;;;;;;;;;5020688;28;20028;-81
2022/03/23 13:46:32;;;;;;;10.43;6.95;;;;;;;;;;5020424;28;20021;-82
2022/03/23 13:49:05;;;;;;;10.45;7.22;;;;;;;;;;5004509;28;20477;-81
2022/03/23 13:51:34;;;;;;;11.75;6.95;;;;;;;;;;4999034;28;20026;-81
2022/03/23 13:54:02;;;;;;;9.88;7.45;;;;;;;;;;5024201;28;20022;-81
2022/03/23 13:56:30;;;;;;;13.13;8.07;;;;;;;;;;5020204;28;20475;-82
2022/03/23 13:58:57;;;;;;;10.88;7.45;;;;;;;;;;5003937;28;20037;-82
2022/03/23 14:01:23;;;;;;;13.38;8.52;;;;;;;;;;5015663;28;20022;-82
2022/03/23 14:03:50;;;;;;;14.30;7.07;;;;;;;;;;5022263;28;20018;-82
2022/03/23 14:06:16;;;;;;;9.70;7.50;;;;;;;;;;5024085;28;20485;-82
2022/03/23 14:08:53;;;;;;;10.45;7.40;;;;;;;;;;5017556;28;20048;-80
2022/03/23 14:11:47;;;;;;;13.95;8.10;;;;;;;;;;5023008;28;20056;-81
2022/03/23 14:14:07;;;;;;;13.25;8.20;;;;;;;;;;5015339;28;20037;-83
2022/03/23 14:16:32;;;;;;;11.27;7.70;;;;;;;;;;5018082;28;20021;-82
2022/03/23 14:18:59;;;;;;;12.70;8.18;;;;;;;;;;5019882;28;20041;-82
2022/03/23 14:21:24;;;;;;;11.88;8.00;;;;;;;;;;5018040;28;20049;-82
2022/03/23 14:23:51;;;;;;;11.35;7.45;;;;;;;;;;5016276;28;20352;-80
2022/03/23 14:26:28;;;;;;;13.75;6.80;;;;;;;;;;5014872;28;20033;-82
2022/03/23 14:28:53;;;;;;;9.48;7.20;;;;;;;;;;5009377;28;20061;-82
2022/03/23 14:31:20;;;;;;;10.75;6.72;;;;;;;;;;5030766;28;20021;-82
2022/03/23 14:33:54;;;;;;;17.65;7.65;;;;;;;;;;5037189;28;20083;-81
2022/03/23 14:36:25;;;;;;;18.05;7.95;;;;;;;;;;5021642;28;20018;-82
2022/03/23 14:38:51;;;;;;;15.07;7.68;;;;;;;;;;5027491;28;20029;-82
2022/03/23 14:41:20;;;;;;;10.50;7.70;;;;;;;;;;5020812;28;20029;-81
2022/03/23 14:43:48;;;;;;;12.00;7.70;;;;;;;;;;5029069;28;20018;-81
2022/03/23 14:46:28;;;;;;;12.70;7.15;;;;;;;;;;5036848;28;20032;-82
2022/03/23 14:49:16;;;;;;;10.70;7.25;;;;;;;;;;5037923;28;20510;-82
2022/03/23 14:51:43;;;;;;;13.13;7.15;;;;;;;;;;5038356;28;20033;-82
2022/03/23 14:54:11;;;;;;;11.02;7.72;;;;;;;;;;5037348;28;20021;-86
2022/03/23 14:56:43;;;;;;;16.70;7.00;;;;;;;;;;5029361;28;20025;-82
2022/03/23 14:59:08;;;;;;;;;;;;;;;;;;5038130;28;20028;-83